createdAt,value
2019-05-26T00:01:38.008Z,17.13
2019-05-26T00:04:15.151Z,16.20
2019-05-26T00:06:52.242Z,14.57
2019-05-26T00:09:29.357Z,14.53
2019-05-26T00:12:06.455Z,15.70
2019-05-26T00:14:43.639Z,14.23
2019-05-26T00:17:20.750Z,14.73
2019-05-26T00:19:57.863Z,13.03
2019-05-26T00:22:34.966Z,12.17
2019-05-26T00:25:12.106Z,12.67
2019-05-26T00:27:50.251Z,13.40
2019-05-26T00:30:27.415Z,13.87
2019-05-26T00:33:04.503Z,13.03
2019-05-26T00:35:41.624Z,14.43
2019-05-26T00:38:18.742Z,12.33
2019-05-26T00:40:55.846Z,15.83
2019-05-26T00:43:32.938Z,15.67
2019-05-26T00:46:10.036Z,17.83
2019-05-26T00:48:47.916Z,15.37
2019-05-26T00:51:25.039Z,13.97
2019-05-26T00:54:02.175Z,14.33
2019-05-26T00:56:39.281Z,14.80
2019-05-26T00:59:18.707Z,13.97
2019-05-26T01:01:55.802Z,14.70
2019-05-26T01:04:32.917Z,19.37
2019-05-26T01:07:10.017Z,15.17
2019-05-26T01:09:47.197Z,16.50
2019-05-26T01:12:24.503Z,17.27
2019-05-26T01:15:01.705Z,20.10
2019-05-26T01:17:38.854Z,16.00
2019-05-26T01:20:16.646Z,18.37
2019-05-26T01:22:54.415Z,16.27
2019-05-26T01:25:31.507Z,17.53
2019-05-26T01:28:08.702Z,18.53
2019-05-26T01:30:45.719Z,14.40
2019-05-26T01:33:22.805Z,13.50
2019-05-26T01:35:59.897Z,13.37
2019-05-26T01:38:36.894Z,13.77
2019-05-26T01:41:13.975Z,12.77
2019-05-26T01:43:51.051Z,12.80
2019-05-26T01:46:28.134Z,12.43
2019-05-26T01:49:05.217Z,16.73
2019-05-26T01:51:42.325Z,13.03
2019-05-26T01:54:19.425Z,13.17
2019-05-26T01:56:56.520Z,12.93
2019-05-26T01:59:33.643Z,15.80
2019-05-26T02:02:10.770Z,16.07
2019-05-26T02:04:47.847Z,16.33
2019-05-26T02:07:24.920Z,14.13
2019-05-26T02:10:02.031Z,15.53
2019-05-26T02:12:39.126Z,13.80
2019-05-26T02:15:16.299Z,14.37
2019-05-26T02:17:53.374Z,13.90
2019-05-26T02:20:30.475Z,15.33
2019-05-26T02:23:07.582Z,15.37
2019-05-26T02:25:44.691Z,17.40
2019-05-26T02:28:21.797Z,15.87
2019-05-26T02:30:58.918Z,15.20
2019-05-26T02:33:35.990Z,15.80
2019-05-26T02:36:13.097Z,19.27
2019-05-26T02:39:02.262Z,14.17
2019-05-26T02:41:28.957Z,13.07
2019-05-26T02:44:06.046Z,15.60
2019-05-26T02:46:43.174Z,14.37
2019-05-26T02:49:20.321Z,15.63
2019-05-26T02:51:57.452Z,14.90
2019-05-26T02:54:34.542Z,13.03
2019-05-26T02:57:11.652Z,14.23
2019-05-26T02:59:48.732Z,15.77
2019-05-26T03:02:26.529Z,17.53
2019-05-26T03:05:04.488Z,15.43
2019-05-26T03:07:43.182Z,15.93
2019-05-26T03:10:21.356Z,13.57
2019-05-26T03:12:58.449Z,15.67
2019-05-26T03:15:35.743Z,18.97
2019-05-26T03:18:12.844Z,18.27
2019-05-26T03:20:49.947Z,15.30
2019-05-26T03:23:30.505Z,18.23
2019-05-26T03:26:10.893Z,16.23
2019-05-26T03:28:47.998Z,18.40
2019-05-26T03:31:25.087Z,18.93
2019-05-26T03:34:02.199Z,21.50
2019-05-26T03:36:39.334Z,19.93
2019-05-26T03:39:17.969Z,16.93
2019-05-26T03:41:55.088Z,15.60
2019-05-26T03:44:32.170Z,15.03
2019-05-26T03:47:09.302Z,16.30
2019-05-26T03:49:46.399Z,17.37
2019-05-26T03:52:23.619Z,17.33
2019-05-26T03:55:00.722Z,18.37
2019-05-26T03:57:37.826Z,14.13
2019-05-26T04:00:14.930Z,18.20
2019-05-26T04:02:53.183Z,14.67
2019-05-26T04:05:30.284Z,15.47
2019-05-26T04:08:07.408Z,16.47
2019-05-26T04:10:44.516Z,17.60
2019-05-26T04:13:21.603Z,19.73
2019-05-26T04:15:58.638Z,26.27
2019-05-26T04:18:35.722Z,17.47
2019-05-26T04:21:12.822Z,16.90
2019-05-26T04:23:51.050Z,16.93
2019-05-26T04:26:28.161Z,18.60
2019-05-26T04:29:05.254Z,19.70
2019-05-26T04:31:42.345Z,16.30
2019-05-26T04:34:19.469Z,14.70
2019-05-26T04:36:56.550Z,19.53
2019-05-26T04:39:33.658Z,20.43
2019-05-26T04:42:10.755Z,18.77
2019-05-26T04:44:47.869Z,18.43
2019-05-26T04:47:24.995Z,21.33
2019-05-26T04:50:02.077Z,17.60
2019-05-26T04:52:39.184Z,20.17
2019-05-26T04:55:16.317Z,20.57
2019-05-26T04:57:53.384Z,22.33
2019-05-26T05:00:30.470Z,22.37
2019-05-26T05:03:07.511Z,21.30
2019-05-26T05:05:44.658Z,19.67
2019-05-26T05:08:21.756Z,22.53
2019-05-26T05:10:58.870Z,27.57
2019-05-26T05:13:36.947Z,26.80
2019-05-26T05:16:14.061Z,22.33
2019-05-26T05:18:51.180Z,19.17
2019-05-26T05:21:28.288Z,20.50
2019-05-26T05:24:05.399Z,21.23
2019-05-26T05:26:42.570Z,16.83
2019-05-26T05:29:19.616Z,20.73
2019-05-26T05:31:56.802Z,19.73
2019-05-26T05:34:33.907Z,16.87
2019-05-26T05:37:11.088Z,18.53
2019-05-26T05:39:48.189Z,19.10
2019-05-26T05:42:25.298Z,17.53
2019-05-26T05:45:02.417Z,17.63
2019-05-26T05:47:39.524Z,15.53
2019-05-26T05:50:16.606Z,16.00
2019-05-26T05:52:53.883Z,14.87
2019-05-26T05:55:30.987Z,15.87
2019-05-26T05:58:08.170Z,12.53
2019-05-26T06:00:45.247Z,13.10
2019-05-26T06:03:22.301Z,13.53
2019-05-26T06:05:59.411Z,14.23
2019-05-26T06:08:36.503Z,9.63
2019-05-26T06:11:16.823Z,11.17
2019-05-26T06:13:52.359Z,13.13
2019-05-26T06:16:29.450Z,9.70
2019-05-26T06:19:06.578Z,14.80
2019-05-26T06:21:44.107Z,12.33
2019-05-26T06:24:21.249Z,11.43
2019-05-26T06:26:58.473Z,10.07
2019-05-26T06:29:35.556Z,8.33
2019-05-26T06:32:12.813Z,10.87
2019-05-26T06:34:49.967Z,7.17
2019-05-26T06:37:27.063Z,9.40
2019-05-26T06:40:06.187Z,9.67
2019-05-26T06:42:43.284Z,7.13
2019-05-26T06:45:20.390Z,8.73
2019-05-26T06:47:57.654Z,7.73
2019-05-26T06:50:34.743Z,8.70
2019-05-26T06:53:11.875Z,8.00
2019-05-26T06:55:48.942Z,8.43
2019-05-26T06:58:26.042Z,8.80
2019-05-26T07:01:03.595Z,9.77
2019-05-26T07:03:40.716Z,6.60
2019-05-26T07:06:18.484Z,7.23
2019-05-26T07:08:55.485Z,8.63
2019-05-26T07:11:47.290Z,7.45
2019-05-26T07:14:11.871Z,6.37
2019-05-26T07:16:49.520Z,7.83
2019-05-26T07:19:27.191Z,6.08
2019-05-26T07:22:04.814Z,8.78
2019-05-26T07:24:43.684Z,6.83
2019-05-26T07:27:22.597Z,7.75
2019-05-26T07:30:01.214Z,6.47
2019-05-26T07:32:38.867Z,5.87
2019-05-26T07:35:16.474Z,5.70
2019-05-26T07:37:54.148Z,7.90
2019-05-26T07:40:31.919Z,7.80
2019-05-26T07:43:09.838Z,6.50
2019-05-26T07:45:47.530Z,8.80
2019-05-26T07:48:25.179Z,7.37
2019-05-26T07:51:02.848Z,7.28
2019-05-26T07:53:40.478Z,8.28
2019-05-26T07:56:18.164Z,7.17
2019-05-26T07:58:55.877Z,5.97
2019-05-26T08:01:36.377Z,6.37
2019-05-26T08:04:13.985Z,8.30
2019-05-26T08:06:52.858Z,8.00
2019-05-26T08:09:30.505Z,8.38
2019-05-26T08:12:08.226Z,7.67
2019-05-26T08:14:45.901Z,8.40
2019-05-26T08:20:46.342Z,9.67
2019-05-26T08:23:46.059Z,8.45
2019-05-26T08:26:53.241Z,7.17
2019-05-26T08:29:30.515Z,8.87
2019-05-26T08:32:07.926Z,8.73
2019-05-26T08:34:45.639Z,10.25
2019-05-26T08:37:23.624Z,10.82
2019-05-26T08:40:19.480Z,8.65
2019-05-26T08:42:57.224Z,9.25
2019-05-26T08:45:35.368Z,11.73
2019-05-26T08:48:12.723Z,8.93
2019-05-26T08:50:50.416Z,11.08
2019-05-26T08:53:28.086Z,10.93
2019-05-26T08:56:16.699Z,10.48
2019-05-26T08:58:55.047Z,8.60
2019-05-26T09:01:32.838Z,9.35
2019-05-26T09:04:10.518Z,10.10
2019-05-26T09:06:48.211Z,11.45
2019-05-26T09:09:25.894Z,10.08
2019-05-26T09:12:03.573Z,10.68
2019-05-26T09:14:41.222Z,8.58
2019-05-26T09:17:18.878Z,9.40
2019-05-26T09:19:57.924Z,10.08
2019-05-26T09:22:35.561Z,9.25
2019-05-26T09:25:13.247Z,9.78
2019-05-26T09:27:51.003Z,9.10
2019-05-26T09:30:28.782Z,9.63
2019-05-26T09:33:06.443Z,8.73
2019-05-26T09:35:44.358Z,9.30
2019-05-26T09:38:23.729Z,10.10
2019-05-26T09:41:01.399Z,10.03
2019-05-26T09:43:39.073Z,10.03
2019-05-26T09:46:16.737Z,12.65
2019-05-26T09:48:54.399Z,9.43
2019-05-26T09:51:32.062Z,10.58
2019-05-26T09:54:12.527Z,9.70
2019-05-26T09:56:49.034Z,9.95
2019-05-26T09:59:26.678Z,8.40
2019-05-26T10:02:04.739Z,9.45
2019-05-26T10:04:45.313Z,9.50
2019-05-26T10:07:25.278Z,12.07
2019-05-26T10:10:04.049Z,8.95
2019-05-26T10:12:43.013Z,9.20
2019-05-26T10:15:20.658Z,6.92
2019-05-26T10:17:58.326Z,7.87
2019-05-26T10:20:39.220Z,7.83
2019-05-26T10:23:16.894Z,6.97
2019-05-26T10:25:54.672Z,7.47
2019-05-26T10:28:32.275Z,8.93
2019-05-26T10:31:10.002Z,6.00
2019-05-26T10:33:47.672Z,6.00
2019-05-26T10:36:28.354Z,5.53
2019-05-26T10:39:09.130Z,6.08
2019-05-26T10:41:46.810Z,5.83
2019-05-26T10:44:26.425Z,7.10
2019-05-26T10:47:04.086Z,5.37
2019-05-26T10:49:44.462Z,7.10
2019-05-26T10:52:23.753Z,5.22
2019-05-26T10:55:01.424Z,6.00
2019-05-26T10:57:39.916Z,4.80
2019-05-26T11:00:17.675Z,4.87
2019-05-26T11:02:55.402Z,8.50
2019-05-26T11:05:33.532Z,7.08
2019-05-26T11:08:20.342Z,5.30
2019-05-26T11:10:58.032Z,5.78
2019-05-26T11:13:35.877Z,5.42
2019-05-26T11:16:13.567Z,6.03
2019-05-26T11:18:51.336Z,5.08
2019-05-26T11:21:29.026Z,11.50
2019-05-26T11:24:06.959Z,6.10
2019-05-26T11:26:44.972Z,6.90
2019-05-26T11:29:22.844Z,5.35
2019-05-26T11:32:00.509Z,6.78
2019-05-26T11:34:40.628Z,5.60
2019-05-26T11:37:19.399Z,15.88
2019-05-26T11:39:57.858Z,6.05
2019-05-26T11:42:35.608Z,5.90
2019-05-26T11:45:13.283Z,15.48
2019-05-26T11:47:50.923Z,7.80
2019-05-26T11:50:28.579Z,8.23
2019-05-26T11:53:09.219Z,7.55
2019-05-26T11:55:47.171Z,8.60
2019-05-26T11:58:27.338Z,7.33
2019-05-26T12:01:05.010Z,10.08
2019-05-26T12:03:43.880Z,5.60
2019-05-26T12:06:22.361Z,6.42
2019-05-26T12:09:00.767Z,7.25
2019-05-26T12:11:38.439Z,7.30
2019-05-26T12:14:16.098Z,6.85
2019-05-26T12:16:53.746Z,7.10
2019-05-26T12:19:31.475Z,7.05
2019-05-26T12:22:09.151Z,8.75
2019-05-26T12:24:46.843Z,11.55
2019-05-26T12:27:24.537Z,5.50
2019-05-26T12:30:06.604Z,6.78
2019-05-26T12:32:44.430Z,8.63
2019-05-26T12:35:22.041Z,7.17
2019-05-26T12:37:59.693Z,7.10
2019-05-26T12:40:37.435Z,5.95
2019-05-26T12:43:15.092Z,8.08
2019-05-26T12:45:52.824Z,6.85
2019-05-26T12:48:30.485Z,7.53
2019-05-26T12:51:08.193Z,8.33
2019-05-26T12:53:45.875Z,6.10
2019-05-26T12:56:25.284Z,7.00
2019-05-26T12:59:03.202Z,9.03
2019-05-26T13:01:40.915Z,7.60
2019-05-26T13:04:18.674Z,6.67
2019-05-26T13:06:56.483Z,7.65
2019-05-26T13:09:35.242Z,8.00
2019-05-26T13:12:13.098Z,6.47
2019-05-26T13:15:05.099Z,6.25
2019-05-26T13:17:30.234Z,6.75
2019-05-26T13:20:09.961Z,6.85
2019-05-26T13:22:47.702Z,6.83
2019-05-26T13:25:29.845Z,6.37
2019-05-26T13:28:07.718Z,7.45
2019-05-26T13:30:45.493Z,8.93
2019-05-26T13:33:23.308Z,7.10
2019-05-26T13:36:01.092Z,9.18
2019-05-26T13:38:38.850Z,6.80
2019-05-26T13:41:16.697Z,6.10
2019-05-26T13:43:54.490Z,8.28
2019-05-26T13:46:33.873Z,6.50
2019-05-26T13:49:17.972Z,6.67
2019-05-26T13:51:57.265Z,9.95
2019-05-26T13:54:37.185Z,6.97
2019-05-26T13:57:14.916Z,6.05
2019-05-26T13:59:52.625Z,5.92
2019-05-26T14:02:30.373Z,7.30
2019-05-26T14:05:08.368Z,6.37
2019-05-26T14:07:46.231Z,5.70
2019-05-26T14:10:37.063Z,6.40
2019-05-26T14:13:14.779Z,5.62
2019-05-26T14:15:53.171Z,8.68
2019-05-26T14:18:31.122Z,4.83
2019-05-26T14:21:09.008Z,5.40
2019-05-26T14:23:46.779Z,7.72
2019-05-26T14:26:25.087Z,6.22
2019-05-26T14:29:02.810Z,6.80
2019-05-26T14:31:40.609Z,5.08
2019-05-26T14:34:18.417Z,5.87
2019-05-26T14:36:56.168Z,4.97
2019-05-26T14:39:36.724Z,7.17
2019-05-26T14:42:14.502Z,6.45
2019-05-26T14:44:53.091Z,3.77
2019-05-26T14:47:30.934Z,4.67
2019-05-26T14:50:16.129Z,3.50
2019-05-26T14:52:53.855Z,3.80
2019-05-26T14:55:31.559Z,5.50
2019-05-26T14:58:16.070Z,3.70
2019-05-26T15:00:50.154Z,4.60
2019-05-26T15:03:27.846Z,3.70
2019-05-26T15:06:19.127Z,5.58
2019-05-26T15:08:56.818Z,6.00
2019-05-26T15:11:34.459Z,3.77
2019-05-26T15:14:12.186Z,5.30
2019-05-26T15:16:49.822Z,4.25
2019-05-26T15:19:27.508Z,4.40
2019-05-26T15:22:05.160Z,3.60
2019-05-26T15:24:42.817Z,3.15
2019-05-26T15:27:20.386Z,5.90
2019-05-26T15:29:58.063Z,3.58
2019-05-26T15:32:35.704Z,3.60
2019-05-26T15:35:13.394Z,3.10
2019-05-26T15:37:51.050Z,3.45
2019-05-26T15:40:28.726Z,4.53
2019-05-26T15:43:06.389Z,3.75
2019-05-26T15:45:44.061Z,6.10
2019-05-26T15:48:21.717Z,3.25
2019-05-26T15:50:59.393Z,3.22
2019-05-26T15:53:37.052Z,5.62
2019-05-26T15:56:14.726Z,3.22
2019-05-26T15:58:52.379Z,4.67
2019-05-26T16:01:31.712Z,4.60
2019-05-26T16:04:09.381Z,6.95
2019-05-26T16:06:47.066Z,3.20
2019-05-26T16:09:24.738Z,4.25
2019-05-26T16:12:05.070Z,4.47
2019-05-26T16:14:42.719Z,4.28
2019-05-26T16:17:20.426Z,2.80
2019-05-26T16:19:58.116Z,31.10
2019-05-26T16:22:35.887Z,6.35
2019-05-26T16:25:13.505Z,3.70
2019-05-26T16:27:51.436Z,4.05
2019-05-26T16:30:31.403Z,4.75
2019-05-26T16:33:09.585Z,4.10
2019-05-26T16:35:47.357Z,6.03
2019-05-26T16:38:28.328Z,3.87
2019-05-26T16:41:06.894Z,4.00
2019-05-26T16:43:45.240Z,4.62
2019-05-26T16:46:23.167Z,4.28
2019-05-26T16:49:01.149Z,3.87
2019-05-26T16:51:40.184Z,4.20
2019-05-26T16:54:18.109Z,3.95
2019-05-26T16:56:55.853Z,4.58
2019-05-26T16:59:34.186Z,5.15
2019-05-26T17:02:11.856Z,6.87
2019-05-26T17:04:49.531Z,4.70
2019-05-26T17:07:28.242Z,4.28
2019-05-26T17:10:08.195Z,8.75
2019-05-26T17:12:45.843Z,4.97
2019-05-26T17:15:23.507Z,4.67
2019-05-26T17:18:01.177Z,5.00
2019-05-26T17:20:38.844Z,4.65
2019-05-26T17:23:16.525Z,7.08
2019-05-26T17:25:54.187Z,7.47
2019-05-26T17:28:31.845Z,6.95
2019-05-26T17:31:09.517Z,5.55
2019-05-26T17:33:47.204Z,5.65
2019-05-26T17:36:24.975Z,6.10
2019-05-26T17:39:07.955Z,7.97
2019-05-26T17:41:46.998Z,7.40
2019-05-26T17:44:24.668Z,6.08
2019-05-26T17:47:02.460Z,13.05
2019-05-26T17:49:41.859Z,11.97
2019-05-26T17:52:28.551Z,7.62
2019-05-26T17:55:09.796Z,9.73
2019-05-26T17:57:47.564Z,8.43
2019-05-26T18:00:25.247Z,7.10
2019-05-26T18:03:03.221Z,6.35
2019-05-26T18:05:40.905Z,6.17
2019-05-26T18:08:21.831Z,16.57
2019-05-26T18:10:59.744Z,14.30
2019-05-26T18:13:37.444Z,10.93
2019-05-26T18:16:15.122Z,18.20
2019-05-26T18:18:55.013Z,15.45
2019-05-26T18:21:32.664Z,15.58
2019-05-26T18:24:24.066Z,15.90
2019-05-26T18:27:01.785Z,11.33
2019-05-26T18:29:39.596Z,7.78
2019-05-26T18:32:17.272Z,6.17
2019-05-26T18:34:55.602Z,6.17
2019-05-26T18:37:33.281Z,8.68
2019-05-26T18:40:11.194Z,8.58
2019-05-26T18:42:49.518Z,6.85
2019-05-26T18:45:47.533Z,8.35
2019-05-26T18:48:25.207Z,11.35
2019-05-26T18:51:02.982Z,9.45
2019-05-26T18:53:41.343Z,14.85
2019-05-26T18:56:19.060Z,8.78
2019-05-26T18:58:56.704Z,9.25
2019-05-26T19:01:34.405Z,6.47
2019-05-26T19:04:12.060Z,5.67
2019-05-26T19:06:52.682Z,7.40
2019-05-26T19:09:30.660Z,7.60
2019-05-26T19:12:10.133Z,8.60
2019-05-26T19:14:48.039Z,6.47
2019-05-26T19:17:26.910Z,5.70
2019-05-26T19:20:15.430Z,8.15
2019-05-26T19:22:45.625Z,7.40
2019-05-26T19:25:22.682Z,12.35
2019-05-26T19:28:08.962Z,9.78
2019-05-26T19:31:16.087Z,8.35
2019-05-26T19:33:53.965Z,9.80
2019-05-26T19:36:31.657Z,10.03
2019-05-26T19:39:10.219Z,15.05
2019-05-26T19:41:48.015Z,11.95
2019-05-26T19:44:25.797Z,10.50
2019-05-26T19:47:02.926Z,13.55
2019-05-26T19:49:40.061Z,11.00
2019-05-26T19:52:20.227Z,15.80
2019-05-26T19:54:57.451Z,13.15
2019-05-26T19:57:36.185Z,10.90
2019-05-26T20:00:16.219Z,12.35
2019-05-26T20:02:53.437Z,10.90
2019-05-26T20:05:30.585Z,11.68
2019-05-26T20:08:07.720Z,13.97
2019-05-26T20:10:44.995Z,14.10
2019-05-26T20:13:22.753Z,12.15
2019-05-26T20:16:00.489Z,10.55
2019-05-26T20:18:37.889Z,9.85
2019-05-26T20:21:15.264Z,9.70
2019-05-26T20:23:53.634Z,9.65
2019-05-26T20:26:31.327Z,19.55
2019-05-26T20:29:08.496Z,15.17
2019-05-26T20:31:45.689Z,14.37
2019-05-26T20:34:22.867Z,14.73
2019-05-26T20:37:00.117Z,12.13
2019-05-26T20:39:39.531Z,11.07
2019-05-26T20:42:16.824Z,12.80
2019-05-26T20:44:56.917Z,13.30
2019-05-26T20:47:34.201Z,12.00
2019-05-26T20:50:27.647Z,16.67
2019-05-26T20:52:51.410Z,14.57
2019-05-26T20:55:28.779Z,11.50
2019-05-26T20:58:06.287Z,12.70
2019-05-26T21:00:46.174Z,13.17
2019-05-26T21:03:23.487Z,13.97
2019-05-26T21:06:00.595Z,14.40
2019-05-26T21:08:37.707Z,13.33
2019-05-26T21:11:14.850Z,10.80
2019-05-26T21:13:52.187Z,13.27
2019-05-26T21:16:29.285Z,14.07
2019-05-26T21:19:06.438Z,12.93
2019-05-26T21:21:43.550Z,12.20
2019-05-26T21:24:20.722Z,10.47
2019-05-26T21:26:58.294Z,8.57
2019-05-26T21:29:35.436Z,9.90
2019-05-26T21:32:12.607Z,10.20
2019-05-26T21:34:49.766Z,9.90
2019-05-26T21:37:26.920Z,11.73
2019-05-26T21:40:05.887Z,10.97
2019-05-26T21:42:43.359Z,10.17
2019-05-26T21:45:20.575Z,8.80
2019-05-26T21:47:57.668Z,9.43
2019-05-26T21:50:34.793Z,9.50
2019-05-26T21:53:15.324Z,9.30
2019-05-26T21:55:52.454Z,9.60
2019-05-26T21:58:36.281Z,12.70
2019-05-26T22:01:13.697Z,13.27
2019-05-26T22:03:51.285Z,13.00
2019-05-26T22:06:28.589Z,10.93
2019-05-26T22:09:09.383Z,11.97
2019-05-26T22:11:47.371Z,12.27
2019-05-26T22:14:26.790Z,13.80
2019-05-26T22:17:03.900Z,14.87
2019-05-26T22:19:41.033Z,16.30
2019-05-26T22:22:18.139Z,15.17
2019-05-26T22:24:55.262Z,13.70
2019-05-26T22:27:32.393Z,18.40
2019-05-26T22:30:09.555Z,16.73
2019-05-26T22:32:46.678Z,18.10
2019-05-26T22:35:23.767Z,17.57
2019-05-26T22:38:00.881Z,17.37
2019-05-26T22:40:38.007Z,16.30
2019-05-26T22:43:15.181Z,16.97
2019-05-26T22:45:52.296Z,15.67
2019-05-26T22:48:29.409Z,15.27
2019-05-26T22:51:06.543Z,15.80
2019-05-26T22:53:43.630Z,18.47
2019-05-26T22:56:20.862Z,15.33
2019-05-26T22:58:58.178Z,16.93
2019-05-26T23:01:36.061Z,19.37
2019-05-26T23:04:14.467Z,16.73
2019-05-26T23:06:52.782Z,16.83
2019-05-26T23:09:29.906Z,18.33
2019-05-26T23:12:07.008Z,18.60
2019-05-26T23:14:44.117Z,17.27
2019-05-26T23:17:21.239Z,17.60
2019-05-26T23:19:58.328Z,18.43
2019-05-26T23:22:35.442Z,19.03
2019-05-26T23:25:12.590Z,22.53
2019-05-26T23:27:49.702Z,19.90
2019-05-26T23:30:26.823Z,18.90
2019-05-26T23:33:03.935Z,20.03
2019-05-26T23:35:41.039Z,18.27
2019-05-26T23:38:18.152Z,19.63
2019-05-26T23:40:55.366Z,18.80
2019-05-26T23:43:32.465Z,18.83
2019-05-26T23:46:09.578Z,18.10
2019-05-26T23:48:46.728Z,19.07
2019-05-26T23:51:23.827Z,20.27
2019-05-26T23:54:01.038Z,19.17
2019-05-26T23:56:38.325Z,20.63
2019-05-26T23:59:15.711Z,21.43
